LEWISTON (LEW)

Elevation: 1870' · TRINITY R basin · Operator: US Bureau of Reclamation

Provisional data, subject to change.
Query executed Friday at 23:35:05   clock

Select a sensor type for a plot of data.
Note: Reservoir Flows are daily averages.

Earlier

Date RES ELE    STORAGE    RES CHG    OUTFLOW    INFLOW    EVAP    RIV REL    SPILL    DIS PWR   
 FEET   AF   AF   CFS   CFS   CFS   CFS   CFS   CFS  
07/28/2016 1901.35 14173 409 1694 1907 7 704 554 110
07/29/2016 1901.74 14465 292 1504 1659 8 648 498 110
07/30/2016 1901.00 13911 -554 1728 1457 8 589 439 110
07/31/2016 1901.00 13911 0 1742 1751 9 553 403 110
08/01/2016 1901.10 13986 75 1554 1596 4 492 342 110
08/02/2016 1901.03 13933 -53 1492 1472 7 453 303 110
08/03/2016 1901.56 14330 397 1452 1659 7 454 304 110
08/04/2016 1901.65 14397 67 1512 1553 7 453 303 110
08/05/2016 1901.37 14188 -209 1394 1296 7 453 303 110
08/06/2016 1901.07 13963 -225 1366 1259 6 452 302 110
08/07/2016 1901.46 14255 292 1288 1443 8 450 300 110
08/08/2016 1901.38 14195 -60 1380 1354 4 454 304 110
08/09/2016 1900.66 13661 -534 1404 1141 6 451 301 110
08/10/2016 1901.20 14061 400 1542 1751 7 450 300 110
08/11/2016 1901.13 14008 -53 1432 1410 5 450 300 110
08/12/2016 1901.36 14180 172 1432 1525 6 450 300 110
08/13/2016 1901.17 14038 -142 1477 1412 7 451 301 110
08/14/2016 1901.20 14061 23 1375 1395 8 449 299 110
08/15/2016 1900.56 13587 -474 1446 1215 8 450 300 110
08/16/2016 1900.58 13602 15 1443 1457 6 450 300 110
08/17/2016 1900.61 13624 22 1454 1472 7 449 299 110
08/18/2016 1900.48 13528 -96 1432 1391 7 448 298 110
08/19/2016 1900.66 13661 133 1428 1502 7 448 298 110
08/20/2016 1900.42 13484 -177 1562 1480 7 455 305 79
08/21/2016 1900.30 13396 -88 1674 1637 7 465 315 0
08/22/2016 1900.53 13565 169 1587 1678 6 475 325 73
08/23/2016 1900.80 13764 199 1770 1877 7 486 336 110
08/24/2016 1901.22 14076 312 1437 1601 7 485 335 110
08/25/2016 1900.77 13742 -334 1658 1496 6 777 627 110
08/26/2016 -- -- -- -- -- -- -- -- --

Later | Latest

Warning! This data is preliminary and subject to revision.

Show LEW Map | Plot LEW Data | 1 Month LEW Data | Real-Time LEW Data | LEW Info